Flugplatz Weipertshofen (UL)

Hier findest Du alle Informationen zum Flugplatz Weipertshofen (UL).

Informationen für Piloten zum Flugplatz Weipertshofen

Hier findest Du alle relevanten Informationen, die Du als Pilot benötigst, um Weipertshofen anzufliegen.

Flugplatz: Weipertshofen ICAO-Code: UL Flugplatz
Frequenz Turm: 123.35 Mhz GAFOR Gebiet: 52
Frequenz Ground: 123.35 Mhz Mogas: ja
Platzrunde: N 2300 ft Landegebühr: 0 €
Platzhöhe: Sunrise: 06:43 Uhr UTC
Pisten: 11/29 - 450 m x 25 m, GRAS Sunset: 15:29 Uhr UTC

Mitglieder, die in Weipertshofen fliegen

Flugwetter am Flugplatz Weipertshofen

Die METAR Information stammen aus EDDS (79.34 km entfernt).

METAR Code:
2022/11/16 21:50
EDDS 162150Z AUTO VRB01KT CAVOK 04/04 Q1000

Flugschulen am Flugplatz Weipertshofen

Am Flugplatz Weipertshofen gibt es leider keine Flugschule.

Benachbarte Flugplätze und Flugschulen

Es gibt 25 weitere Flugplätze in einem Umkreis von 50 km um den Flugplatz Weipertshofen.

Jetzt anmelden

Passwort vergessen

Umfrage Archiv

Sendet Ihr ADS-B und/oder FLARM?

Ja
84.5 %
Nein
15.5 %
Stimmen: 252 | Diskussion
Anzeige: Roland Aircraft
Statistik Alle Mitglieder

Aktuell sind 45 Besucher online, davon 4 Mitglieder und 41 Gäste.


Mitglieder online:
Heli  Nordseepilot  monstertyp  PeterM 

Anzeige: ULPower Aero Engines Anzeige: EasyVFR